createdAt,value
2018-01-08T00:01:51.300Z,100397.49
2018-01-08T00:04:18.777Z,100394.57
2018-01-08T00:06:46.322Z,100395.86
2018-01-08T00:09:13.800Z,100398.84
2018-01-08T00:11:41.282Z,100394.16
2018-01-08T00:14:08.753Z,100395.41
2018-01-08T00:16:36.259Z,100398.35
2018-01-08T00:19:03.716Z,100398.28
2018-01-08T00:21:31.182Z,100404.20
2018-01-08T00:23:58.667Z,100397.02
2018-01-08T00:26:26.139Z,100408.48
2018-01-08T00:28:53.595Z,100405.54
2018-01-08T00:31:21.081Z,100416.66
2018-01-08T00:33:48.595Z,100413.66
2018-01-08T00:36:16.099Z,100420.41
2018-01-08T00:38:43.560Z,100414.19
2018-01-08T00:41:11.061Z,100422.20
2018-01-08T00:43:38.555Z,100420.49
2018-01-08T00:46:06.032Z,100422.11
2018-01-08T00:48:33.523Z,100428.51
2018-01-08T00:51:00.997Z,100430.64
2018-01-08T00:53:28.459Z,100432.80
2018-01-08T00:55:55.963Z,100423.87
2018-01-08T00:58:23.434Z,100426.02
2018-01-08T01:00:50.892Z,100419.67
2018-01-08T01:03:19.159Z,100427.34
2018-01-08T01:05:46.709Z,100421.05
2018-01-08T01:08:14.257Z,100424.02
2018-01-08T01:10:41.732Z,100427.02
2018-01-08T01:13:09.216Z,100422.76
2018-01-08T01:15:36.706Z,100419.35
2018-01-08T01:18:04.213Z,100422.34
2018-01-08T01:20:33.412Z,100418.56
2018-01-08T01:23:00.878Z,100412.23
2018-01-08T01:25:28.399Z,100414.77
2018-01-08T01:27:55.883Z,100405.86
2018-01-08T01:30:23.371Z,100405.77
2018-01-08T01:32:50.864Z,100405.33
2018-01-08T01:35:18.335Z,100410.37
2018-01-08T01:37:45.799Z,100407.39
2018-01-08T01:40:13.371Z,100412.91
2018-01-08T01:42:40.853Z,100401.83
2018-01-08T01:45:08.370Z,100406.06
2018-01-08T01:47:35.926Z,100397.58
2018-01-08T01:50:03.440Z,100398.02
2018-01-08T01:52:30.913Z,100400.55
2018-01-08T01:54:58.371Z,100393.78
2018-01-08T01:57:25.845Z,100395.05
2018-01-08T01:59:53.323Z,100395.07
2018-01-08T02:02:23.011Z,100389.64
2018-01-08T02:04:50.534Z,100399.34
2018-01-08T02:07:18.009Z,100405.63
2018-01-08T02:09:45.464Z,100404.00
2018-01-08T02:12:12.926Z,100400.20
2018-01-08T02:14:40.503Z,100396.67
2018-01-08T02:17:07.979Z,100397.17
2018-01-08T02:19:35.501Z,100400.09
2018-01-08T02:22:02.968Z,100399.27
2018-01-08T02:24:30.865Z,100402.59
2018-01-08T02:26:58.319Z,100396.23
2018-01-08T02:29:25.800Z,100397.06
2018-01-08T02:31:53.294Z,100401.70
2018-01-08T02:34:20.752Z,100401.76
2018-01-08T02:36:48.319Z,100404.25
2018-01-08T02:39:15.820Z,100406.70
2018-01-08T02:41:43.289Z,100395.71
2018-01-08T02:44:10.782Z,100408.42
2018-01-08T02:46:38.426Z,100399.13
2018-01-08T02:49:05.876Z,100400.95
2018-01-08T02:51:33.363Z,100411.44
2018-01-08T02:54:00.818Z,100407.27
2018-01-08T02:56:28.322Z,100415.69
2018-01-08T02:58:55.779Z,100415.25
2018-01-08T03:01:23.239Z,100410.53
2018-01-08T03:03:50.718Z,100416.05
2018-01-08T03:06:18.176Z,100413.92
2018-01-08T03:08:45.634Z,100412.14
2018-01-08T03:11:13.091Z,100413.43
2018-01-08T03:13:40.547Z,100413.41
2018-01-08T03:16:08.023Z,100419.03
2018-01-08T03:18:35.527Z,100413.53
2018-01-08T03:21:03.003Z,100415.19
2018-01-08T03:23:30.503Z,100418.58
2018-01-08T03:25:57.978Z,100417.76
2018-01-08T03:28:25.454Z,100416.56
2018-01-08T03:30:52.912Z,100414.00
2018-01-08T03:33:20.408Z,100401.30
2018-01-08T03:35:47.889Z,100409.41
2018-01-08T03:38:15.486Z,100406.44
2018-01-08T03:40:42.968Z,100403.02
2018-01-08T03:43:10.557Z,100404.70
2018-01-08T03:45:38.009Z,100404.23
2018-01-08T03:48:05.489Z,100410.98
2018-01-08T03:50:32.976Z,100410.63
2018-01-08T03:53:00.443Z,100417.47
2018-01-08T03:55:27.964Z,100420.77
2018-01-08T03:57:55.436Z,100419.92
2018-01-08T04:00:23.784Z,100413.59
2018-01-08T04:02:51.269Z,100401.69
2018-01-08T04:05:18.748Z,100399.14
2018-01-08T04:07:46.201Z,100405.86
2018-01-08T04:10:13.663Z,100411.39
2018-01-08T04:12:41.155Z,100407.98
2018-01-08T04:15:08.611Z,100414.80
2018-01-08T04:17:36.096Z,100407.62
2018-01-08T04:20:03.558Z,100415.58
2018-01-08T04:22:31.033Z,100421.45
2018-01-08T04:25:01.699Z,100418.95
2018-01-08T04:27:29.190Z,100419.38
2018-01-08T04:29:57.502Z,100422.32
2018-01-08T04:32:26.510Z,100422.73
2018-01-08T04:34:54.369Z,100415.98
2018-01-08T04:37:23.146Z,100415.16
2018-01-08T04:39:51.006Z,100420.27
2018-01-08T04:42:18.607Z,100418.44
2018-01-08T04:44:46.078Z,100422.22
2018-01-08T04:47:14.110Z,100422.56
2018-01-08T04:49:42.231Z,100436.04
2018-01-08T04:52:09.866Z,100441.47
2018-01-08T04:54:37.314Z,100443.56
2018-01-08T04:57:04.786Z,100437.17
2018-01-08T04:59:32.246Z,100433.70
2018-01-08T05:02:00.215Z,100430.80
2018-01-08T05:04:27.666Z,100441.45
2018-01-08T05:06:55.123Z,100442.31
2018-01-08T05:09:22.622Z,100441.81
2018-01-08T05:11:50.083Z,100447.34
2018-01-08T05:14:17.543Z,100441.88
2018-01-08T05:16:45.022Z,100449.41
2018-01-08T05:19:12.511Z,100448.53
2018-01-08T05:21:40.133Z,100451.53
2018-01-08T05:24:07.670Z,100448.96
2018-01-08T05:26:35.282Z,100452.44
2018-01-08T05:29:02.758Z,100456.12
2018-01-08T05:31:30.231Z,100460.80
2018-01-08T05:33:57.700Z,100460.73
2018-01-08T05:36:25.239Z,100467.48
2018-01-08T05:38:52.728Z,100461.98
2018-01-08T05:41:20.191Z,100455.24
2018-01-08T05:43:47.667Z,100451.84
2018-01-08T05:46:15.396Z,100459.84
2018-01-08T05:48:42.884Z,100466.55
2018-01-08T05:51:10.351Z,100468.64
2018-01-08T05:53:37.810Z,100475.42
2018-01-08T05:56:05.287Z,100480.87
2018-01-08T05:58:32.805Z,100481.40
2018-01-08T06:01:00.275Z,100476.39
2018-01-08T06:03:27.782Z,100476.82
2018-01-08T06:05:55.251Z,100477.24
2018-01-08T06:08:22.767Z,100485.70
2018-01-08T06:10:50.253Z,100483.10
2018-01-08T06:13:17.727Z,100494.00
2018-01-08T06:15:45.210Z,100500.39
2018-01-08T06:18:12.666Z,100500.03
2018-01-08T06:20:40.159Z,100497.39
2018-01-08T06:23:07.616Z,100497.40
2018-01-08T06:25:35.087Z,100494.37
2018-01-08T06:28:02.553Z,100489.29
2018-01-08T06:30:30.132Z,100491.32
2018-01-08T06:32:57.620Z,100496.06
2018-01-08T06:35:25.114Z,100501.34
2018-01-08T06:37:52.575Z,100508.03
2018-01-08T06:40:20.040Z,100506.34
2018-01-08T06:42:49.774Z,100504.55
2018-01-08T06:45:17.355Z,100513.95
2018-01-08T06:47:45.479Z,100515.70
2018-01-08T06:50:12.942Z,100518.09
2018-01-08T06:52:40.404Z,100531.49
2018-01-08T06:55:07.883Z,100531.44
2018-01-08T06:57:35.343Z,100532.84
2018-01-08T07:00:02.889Z,100539.22
2018-01-08T07:02:31.347Z,100538.73
2018-01-08T07:04:58.867Z,100540.94
2018-01-08T07:07:26.356Z,100538.92
2018-01-08T07:09:53.807Z,100536.82
2018-01-08T07:12:21.271Z,100539.27
2018-01-08T07:14:48.736Z,100545.75
2018-01-08T07:17:16.231Z,100551.22
2018-01-08T07:19:43.709Z,100562.60
2018-01-08T07:22:11.179Z,100559.27
2018-01-08T07:24:38.661Z,100559.18
2018-01-08T07:27:06.128Z,100555.67
2018-01-08T07:29:33.591Z,100561.92
2018-01-08T07:32:01.058Z,100568.35
2018-01-08T07:34:28.539Z,100567.59
2018-01-08T07:36:56.005Z,100570.13
2018-01-08T07:39:23.606Z,100557.50
2018-01-08T07:41:51.069Z,100563.50
2018-01-08T07:44:18.694Z,100564.25
2018-01-08T07:46:46.218Z,100574.00
2018-01-08T07:49:13.746Z,100572.27
2018-01-08T07:51:41.233Z,100568.91
2018-01-08T07:54:08.742Z,100569.44
2018-01-08T07:56:36.971Z,100576.23
2018-01-08T07:59:04.540Z,100575.41
2018-01-08T08:01:32.058Z,100575.03
2018-01-08T08:03:59.514Z,100580.51
2018-01-08T08:06:26.979Z,100579.16
2018-01-08T08:08:54.468Z,100579.58
2018-01-08T08:11:21.967Z,100577.62
2018-01-08T08:13:49.429Z,100575.87
2018-01-08T08:16:17.028Z,100585.09
2018-01-08T08:18:44.482Z,100579.23
2018-01-08T08:21:12.084Z,100575.73
2018-01-08T08:23:39.567Z,100582.63
2018-01-08T08:26:07.309Z,100589.02
2018-01-08T08:28:34.779Z,100587.04
2018-01-08T08:31:02.253Z,100587.94
2018-01-08T08:33:29.723Z,100591.30
2018-01-08T08:35:57.182Z,100599.77
2018-01-08T08:38:24.628Z,100594.43
2018-01-08T08:40:52.123Z,100579.89
2018-01-08T08:43:19.587Z,100579.52
2018-01-08T08:45:47.035Z,100578.22
2018-01-08T08:48:14.500Z,100576.93
2018-01-08T08:50:42.013Z,100584.64
2018-01-08T08:53:09.467Z,100587.29
2018-01-08T08:55:36.933Z,100588.17
2018-01-08T08:58:04.431Z,100588.12
2018-01-08T09:00:31.963Z,100586.83
2018-01-08T09:02:59.450Z,100574.72
2018-01-08T09:05:26.920Z,100576.88
2018-01-08T09:07:54.398Z,100569.73
2018-01-08T09:10:21.863Z,100573.91
2018-01-08T09:12:49.347Z,100576.91
2018-01-08T09:15:16.859Z,100568.36
2018-01-08T09:17:44.319Z,100577.34
2018-01-08T09:20:11.783Z,100579.97
2018-01-08T09:22:39.247Z,100584.19
2018-01-08T09:25:06.714Z,100582.52
2018-01-08T09:27:34.201Z,100574.80
2018-01-08T09:30:01.691Z,100572.72
2018-01-08T09:32:29.155Z,100562.08
2018-01-08T09:34:56.634Z,100560.80
2018-01-08T09:37:24.110Z,100558.19
2018-01-08T09:39:51.574Z,100555.25
2018-01-08T09:42:19.040Z,100552.26
2018-01-08T09:44:46.564Z,100544.17
2018-01-08T09:47:14.131Z,100558.67
2018-01-08T09:49:41.643Z,100568.98
2018-01-08T09:52:09.152Z,100572.78
2018-01-08T09:54:36.619Z,100566.47
2018-01-08T09:57:04.102Z,100569.42
2018-01-08T09:59:31.567Z,100557.01
2018-01-08T10:01:59.082Z,100556.11
2018-01-08T10:04:38.454Z,100558.34
2018-01-08T10:07:17.715Z,100562.91
2018-01-08T10:09:56.870Z,100558.86
2018-01-08T10:12:36.165Z,100558.05
2018-01-08T10:15:15.659Z,100558.87
2018-01-08T10:17:54.789Z,100559.36
2018-01-08T10:20:22.334Z,100564.87
2018-01-08T10:22:49.841Z,100565.78
2018-01-08T10:25:17.298Z,100566.21
2018-01-08T10:27:44.769Z,100565.94
2018-01-08T10:30:12.243Z,100558.73
2018-01-08T10:32:39.727Z,100559.46
2018-01-08T10:35:07.207Z,100558.66
2018-01-08T10:37:34.676Z,100563.37
2018-01-08T10:40:02.163Z,100559.66
2018-01-08T10:42:35.290Z,100559.14
2018-01-08T10:45:08.320Z,100555.32
2018-01-08T10:47:41.283Z,100548.14
2018-01-08T10:50:14.414Z,100548.09
2018-01-08T10:52:42.619Z,100541.34
2018-01-08T10:55:10.075Z,100541.44
2018-01-08T10:57:37.559Z,100547.89
2018-01-08T11:00:05.030Z,100545.11
2018-01-08T11:02:38.089Z,100545.44
2018-01-08T11:05:05.627Z,100545.41
2018-01-08T11:07:33.169Z,100541.77
2018-01-08T11:10:00.626Z,100543.85
2018-01-08T11:12:28.242Z,100537.48
2018-01-08T11:14:55.724Z,100534.45
2018-01-08T11:17:23.199Z,100528.90
2018-01-08T11:19:50.671Z,100516.99
2018-01-08T11:22:18.179Z,100525.54
2018-01-08T11:24:45.702Z,100524.16
2018-01-08T11:27:13.158Z,100517.56
2018-01-08T11:29:40.632Z,100510.35
2018-01-08T11:32:08.084Z,100506.57
2018-01-08T11:34:35.588Z,100509.59
2018-01-08T11:37:03.032Z,100502.84
2018-01-08T11:39:30.486Z,100502.41
2018-01-08T11:41:58.004Z,100506.19
2018-01-08T11:44:25.469Z,100510.55
2018-01-08T11:46:52.951Z,100513.55
2018-01-08T11:49:20.419Z,100513.53
2018-01-08T11:51:47.894Z,100512.19
2018-01-08T11:54:15.343Z,100496.89
2018-01-08T11:56:42.817Z,100495.31
2018-01-08T11:59:10.399Z,100486.38
2018-01-08T12:01:37.885Z,100488.44
2018-01-08T12:04:05.390Z,100477.84
2018-01-08T12:06:32.842Z,100477.89
2018-01-08T12:09:00.363Z,100479.19
2018-01-08T12:11:27.843Z,100486.48
2018-01-08T12:13:55.330Z,100489.93
2018-01-08T12:16:22.839Z,100485.60
2018-01-08T12:18:51.607Z,100486.01
2018-01-08T12:21:19.265Z,100483.96
2018-01-08T12:23:46.742Z,100483.16
2018-01-08T12:26:14.209Z,100484.47
2018-01-08T12:28:41.667Z,100481.44
2018-01-08T12:31:09.119Z,100480.13
2018-01-08T12:33:36.568Z,100485.22
2018-01-08T12:36:04.029Z,100483.07
2018-01-08T12:38:31.513Z,100478.07
2018-01-08T12:40:58.980Z,100471.52
2018-01-08T12:43:26.512Z,100475.30
2018-01-08T12:45:53.970Z,100480.79
2018-01-08T12:48:21.446Z,100482.05
2018-01-08T12:50:48.964Z,100484.53
2018-01-08T12:53:16.491Z,100480.22
2018-01-08T12:55:43.965Z,100479.89
2018-01-08T12:58:11.439Z,100475.67
2018-01-08T13:00:38.926Z,100479.43
2018-01-08T13:03:06.381Z,100476.91
2018-01-08T13:05:33.852Z,100478.65
2018-01-08T13:08:01.348Z,100471.92
2018-01-08T13:10:28.826Z,100471.52
2018-01-08T13:12:56.280Z,100474.87
2018-01-08T13:15:23.756Z,100471.40
2018-01-08T13:17:51.223Z,100480.27
2018-01-08T13:20:18.813Z,100474.73
2018-01-08T13:22:46.277Z,100465.42
2018-01-08T13:25:13.738Z,100469.79
2018-01-08T13:27:41.226Z,100478.67
2018-01-08T13:30:08.701Z,100480.45
2018-01-08T13:32:36.177Z,100478.13
2018-01-08T13:35:03.671Z,100472.91
2018-01-08T13:37:31.126Z,100466.02
2018-01-08T13:39:58.605Z,100472.83
2018-01-08T13:42:26.103Z,100475.02
2018-01-08T13:44:53.574Z,100478.88
2018-01-08T13:47:21.060Z,100479.62
2018-01-08T13:49:48.556Z,100483.03
2018-01-08T13:52:16.847Z,100479.17
2018-01-08T13:54:45.035Z,100471.20
2018-01-08T13:57:12.538Z,100478.83
2018-01-08T13:59:40.018Z,100488.52
2018-01-08T14:02:07.488Z,100479.92
2018-01-08T14:04:35.039Z,100491.77
2018-01-08T14:07:02.525Z,100494.72
2018-01-08T14:09:30.314Z,100502.76
2018-01-08T14:11:57.780Z,100501.50
2018-01-08T14:14:25.243Z,100508.73
2018-01-08T14:16:52.710Z,100511.71
2018-01-08T14:19:20.187Z,100500.40
2018-01-08T14:21:47.638Z,100500.84
2018-01-08T14:24:15.125Z,100498.30
2018-01-08T14:26:42.599Z,100496.54
2018-01-08T14:29:10.101Z,100494.45
2018-01-08T14:31:37.585Z,100504.97
2018-01-08T14:34:05.102Z,100503.77
2018-01-08T14:36:32.656Z,100501.63
2018-01-08T14:39:00.145Z,100512.57
2018-01-08T14:41:27.607Z,100518.14
2018-01-08T14:43:55.098Z,100523.09
2018-01-08T14:46:22.599Z,100527.18
2018-01-08T14:48:50.082Z,100536.02
2018-01-08T14:51:17.828Z,100533.70
2018-01-08T14:53:45.313Z,100536.27
2018-01-08T14:56:12.775Z,100540.11
2018-01-08T14:58:40.883Z,100534.99
2018-01-08T15:01:08.361Z,100534.47
2018-01-08T15:03:35.814Z,100528.95
2018-01-08T15:06:03.312Z,100531.92
2018-01-08T15:08:30.876Z,100532.37
2018-01-08T15:10:58.394Z,100543.28
2018-01-08T15:13:25.835Z,100546.52
2018-01-08T15:15:53.302Z,100561.64
2018-01-08T15:18:20.844Z,100567.92
2018-01-08T15:20:48.321Z,100564.60
2018-01-08T15:23:15.852Z,100574.69
2018-01-08T15:25:43.324Z,100561.53
2018-01-08T15:28:10.815Z,100556.98
2018-01-08T15:30:38.290Z,100555.77
2018-01-08T15:33:05.755Z,100551.69
2018-01-08T15:35:33.247Z,100554.98
2018-01-08T15:38:00.770Z,100553.84
2018-01-08T15:40:28.270Z,100546.28
2018-01-08T15:42:55.762Z,100543.66
2018-01-08T15:45:23.241Z,100544.47
2018-01-08T15:47:50.695Z,100549.22
2018-01-08T15:50:18.191Z,100550.99
2018-01-08T15:52:47.074Z,100551.28
2018-01-08T15:55:14.550Z,100548.51
2018-01-08T15:57:42.111Z,100548.51
2018-01-08T16:00:09.618Z,100556.93
2018-01-08T16:02:37.096Z,100565.41
2018-01-08T16:05:04.576Z,100566.65
2018-01-08T16:07:32.034Z,100567.48
2018-01-08T16:09:59.509Z,100564.23
2018-01-08T16:12:27.372Z,100556.07
2018-01-08T16:14:54.914Z,100550.62
2018-01-08T16:17:22.414Z,100544.64
2018-01-08T16:19:49.888Z,100545.48
2018-01-08T16:22:17.482Z,100543.60
2018-01-08T16:24:45.413Z,100552.13
2018-01-08T16:27:12.907Z,100546.44
2018-01-08T16:29:40.391Z,100546.45
2018-01-08T16:32:07.875Z,100545.63
2018-01-08T16:34:37.888Z,100562.69
2018-01-08T16:37:05.393Z,100566.50
2018-01-08T16:39:33.867Z,100573.20
2018-01-08T16:42:01.343Z,100573.20
2018-01-08T16:44:28.800Z,100568.92
2018-01-08T16:46:56.352Z,100574.48
2018-01-08T16:49:23.807Z,100567.11
2018-01-08T16:51:51.271Z,100567.34
2018-01-08T16:54:18.777Z,100567.95
2018-01-08T16:56:46.323Z,100570.45
2018-01-08T16:59:13.805Z,100574.05
2018-01-08T17:01:41.297Z,100575.53
2018-01-08T17:04:08.791Z,100585.86
2018-01-08T17:06:36.879Z,100593.05
2018-01-08T17:09:04.411Z,100592.53
2018-01-08T17:11:31.911Z,100592.66
2018-01-08T17:13:59.424Z,100591.76
2018-01-08T17:16:26.945Z,100592.23
2018-01-08T17:18:54.440Z,100592.72
2018-01-08T17:21:21.933Z,100593.91
2018-01-08T17:23:49.466Z,100592.96
2018-01-08T17:26:17.147Z,100589.71
2018-01-08T17:28:44.643Z,100592.77
2018-01-08T17:31:12.199Z,100593.54
2018-01-08T17:33:39.706Z,100596.12
2018-01-08T17:36:07.208Z,100601.20
2018-01-08T17:38:34.814Z,100593.58
2018-01-08T17:41:02.399Z,100599.61
2018-01-08T17:43:29.908Z,100594.44
2018-01-08T17:45:57.399Z,100595.30
2018-01-08T17:48:25.114Z,100589.32
2018-01-08T17:50:52.618Z,100590.20
2018-01-08T17:53:20.183Z,100595.61
2018-01-08T17:55:47.706Z,100591.00
2018-01-08T17:58:15.253Z,100580.81
2018-01-08T18:00:42.780Z,100588.02
2018-01-08T18:03:10.301Z,100585.53
2018-01-08T18:05:37.797Z,100580.52
2018-01-08T18:08:05.311Z,100578.69
2018-01-08T18:10:33.288Z,100583.59
2018-01-08T18:13:00.831Z,100584.02
2018-01-08T18:15:28.327Z,100586.19
2018-01-08T18:17:55.829Z,100583.66
2018-01-08T18:20:23.345Z,100594.38
2018-01-08T18:22:50.814Z,100599.77
2018-01-08T18:25:18.313Z,100601.95
2018-01-08T18:27:45.899Z,100615.75
2018-01-08T18:30:13.415Z,100602.10
2018-01-08T18:32:41.969Z,100610.22
2018-01-08T18:35:09.516Z,100617.00
2018-01-08T18:37:37.036Z,100620.38
2018-01-08T18:40:04.606Z,100617.58
2018-01-08T18:42:32.364Z,100620.13
2018-01-08T18:44:59.909Z,100616.27
2018-01-08T18:47:27.427Z,100609.89
2018-01-08T18:49:54.958Z,100610.34
2018-01-08T18:52:22.460Z,100611.66
2018-01-08T18:54:49.977Z,100608.77
2018-01-08T18:57:17.574Z,100608.80
2018-01-08T18:59:45.088Z,100615.42
2018-01-08T19:02:12.632Z,100613.87
2018-01-08T19:04:40.200Z,100610.58
2018-01-08T19:07:07.704Z,100605.78
2018-01-08T19:09:35.198Z,100602.23
2018-01-08T19:12:02.701Z,100601.44
2018-01-08T19:14:30.232Z,100610.70
2018-01-08T19:16:57.743Z,100609.86
2018-01-08T19:19:25.258Z,100615.41
2018-01-08T19:21:52.721Z,100614.98
2018-01-08T19:24:20.183Z,100618.94
2018-01-08T19:26:47.656Z,100622.39
2018-01-08T19:29:15.141Z,100623.58
2018-01-08T19:31:42.701Z,100625.61
2018-01-08T19:34:10.209Z,100623.84
2018-01-08T19:36:37.664Z,100622.30
2018-01-08T19:39:05.223Z,100624.80
2018-01-08T19:41:32.693Z,100631.27
2018-01-08T19:44:00.982Z,100630.08
2018-01-08T19:46:28.433Z,100631.80
2018-01-08T19:48:55.962Z,100625.82
2018-01-08T19:51:23.477Z,100629.15
2018-01-08T19:53:51.074Z,100630.52
2018-01-08T19:56:18.541Z,100626.63
2018-01-08T19:58:46.209Z,100627.81
2018-01-08T20:01:13.728Z,100626.09
2018-01-08T20:03:41.208Z,100615.16
2018-01-08T20:06:08.727Z,100622.76
2018-01-08T20:08:36.306Z,100617.24
2018-01-08T20:11:03.808Z,100624.46
2018-01-08T20:13:31.358Z,100627.04
2018-01-08T20:15:58.890Z,100623.61
2018-01-08T20:18:26.437Z,100625.40
2018-01-08T20:20:53.919Z,100630.50
2018-01-08T20:23:21.427Z,100634.78
2018-01-08T20:25:49.006Z,100634.78
2018-01-08T20:28:16.722Z,100635.60
2018-01-08T20:30:44.226Z,100633.47
2018-01-08T20:33:11.702Z,100630.99
2018-01-08T20:35:39.151Z,100622.55
2018-01-08T20:38:06.687Z,100620.13
2018-01-08T20:40:34.305Z,100622.13
2018-01-08T20:43:01.858Z,100616.64
2018-01-08T20:45:29.354Z,100617.89
2018-01-08T20:47:56.876Z,100614.61
2018-01-08T20:50:24.351Z,100613.77
2018-01-08T20:52:51.822Z,100605.69
2018-01-08T20:55:19.290Z,100601.92
2018-01-08T20:57:46.807Z,100596.84
2018-01-08T21:00:14.328Z,100606.16
2018-01-08T21:02:41.809Z,100615.47
2018-01-08T21:05:10.300Z,100621.08
2018-01-08T21:07:37.801Z,100624.48
2018-01-08T21:10:05.270Z,100631.25
2018-01-08T21:12:32.764Z,100636.84
2018-01-08T21:15:00.252Z,100634.77
2018-01-08T21:17:27.748Z,100629.36
2018-01-08T21:19:55.228Z,100632.48
2018-01-08T21:22:22.718Z,100627.13
2018-01-08T21:24:50.204Z,100625.43
2018-01-08T21:27:17.798Z,100622.55
2018-01-08T21:29:45.311Z,100625.59
2018-01-08T21:32:12.793Z,100629.47
2018-01-08T21:34:40.290Z,100635.88
2018-01-08T21:37:07.747Z,100639.70
2018-01-08T21:39:35.273Z,100636.70
2018-01-08T21:42:02.798Z,100638.97
2018-01-08T21:44:30.286Z,100630.58
2018-01-08T21:46:57.755Z,100629.80
2018-01-08T21:49:25.243Z,100624.68
2018-01-08T21:51:52.695Z,100629.31
2018-01-08T21:54:20.173Z,100623.07
2018-01-08T21:56:47.648Z,100623.93
2018-01-08T21:59:15.121Z,100626.55
2018-01-08T22:01:42.590Z,100631.60
2018-01-08T22:04:10.052Z,100632.79
2018-01-08T22:06:37.530Z,100639.11
2018-01-08T22:09:05.066Z,100637.95
2018-01-08T22:11:32.526Z,100632.90
2018-01-08T22:13:59.986Z,100631.27
2018-01-08T22:16:27.466Z,100633.92
2018-01-08T22:18:54.934Z,100635.98
2018-01-08T22:21:22.473Z,100636.38
2018-01-08T22:23:49.940Z,100633.73
2018-01-08T22:26:17.526Z,100635.44
2018-01-08T22:28:45.018Z,100636.66
2018-01-08T22:31:12.499Z,100629.48
2018-01-08T22:33:39.963Z,100630.32
2018-01-08T22:36:07.440Z,100629.55
2018-01-08T22:38:35.235Z,100640.53
2018-01-08T22:41:02.720Z,100636.85
2018-01-08T22:43:30.187Z,100648.62
2018-01-08T22:45:57.655Z,100639.26
2018-01-08T22:48:25.217Z,100640.68
2018-01-08T22:50:52.742Z,100633.50
2018-01-08T22:53:20.210Z,100631.48
2018-01-08T22:55:47.684Z,100628.00
2018-01-08T22:58:15.403Z,100628.34
2018-01-08T23:00:42.928Z,100627.03
2018-01-08T23:03:10.439Z,100624.52
2018-01-08T23:05:37.896Z,100625.02
2018-01-08T23:08:05.363Z,100618.17
2018-01-08T23:10:33.119Z,100619.06
2018-01-08T23:13:00.614Z,100620.67
2018-01-08T23:15:28.103Z,100611.28
2018-01-08T23:17:55.602Z,100618.64
2018-01-08T23:20:23.055Z,100617.41
2018-01-08T23:22:50.564Z,100621.27
2018-01-08T23:25:18.044Z,100622.54
2018-01-08T23:27:45.525Z,100625.94
2018-01-08T23:30:13.000Z,100630.66
2018-01-08T23:32:40.482Z,100632.77
2018-01-08T23:35:07.994Z,100632.22
2018-01-08T23:37:35.484Z,100636.55
2018-01-08T23:40:03.067Z,100636.91
2018-01-08T23:42:30.712Z,100649.56
2018-01-08T23:44:58.204Z,100652.87
2018-01-08T23:47:25.667Z,100661.38
2018-01-08T23:49:53.159Z,100658.09
2018-01-08T23:52:20.680Z,100657.02
2018-01-08T23:54:48.286Z,100654.05
2018-01-08T23:57:15.947Z,100656.61
2018-01-08T23:59:43.428Z,100641.41
